Time;durP1;ratioP1;P1;durP2;ratioP2;P2;SDS_P1;SDS_P2;PMS_P1;PMS_P2;Temp;Humidity;BMP_temperature;BMP_pressure;BME280_temperature;BME280_humidity;BME280_pressure;Samples;Min_cycle;Max_cycle;Signal;HPM_P1;HPM_P2
2023/03/25 00:00:59;;;;;;;4.63;2.80;;;;;;;19.77;43.95;99280.56;5094688;28;20048;-66
2023/03/25 00:03:29;;;;;;;5.05;2.60;;;;;;;19.75;43.84;99277.19;5094672;28;20093;-67
2023/03/25 00:05:57;;;;;;;4.60;2.60;;;;;;;19.76;43.58;99286.97;5094631;28;20396;-67
2023/03/25 00:08:28;;;;;;;3.90;2.35;;;;;;;19.75;43.90;99290.72;5094320;28;20044;-67
2023/03/25 00:11:03;;;;;;;3.55;2.22;;;;;;;19.75;43.77;99293.41;5094561;28;20040;-67
2023/03/25 00:13:31;;;;;;;4.68;2.40;;;;;;;19.74;43.99;99291.72;5094623;28;20071;-66
2023/03/25 00:16:00;;;;;;;3.55;2.40;;;;;;;19.73;43.68;99290.06;5094415;28;20521;-67
2023/03/25 00:18:32;;;;;;;3.17;2.20;;;;;;;19.73;44.00;99280.06;5094357;28;20048;-67
2023/03/25 00:21:02;;;;;;;4.45;2.58;;;;;;;19.72;43.92;99277.53;5094385;28;20040;-67
2023/03/25 00:23:31;;;;;;;4.10;2.25;;;;;;;19.69;44.04;99270.63;5095685;28;20048;-67
2023/03/25 00:26:01;;;;;;;4.40;2.40;;;;;;;19.71;44.15;99275.84;5094234;28;20048;-66
2023/03/25 00:28:33;;;;;;;4.72;2.63;;;;;;;19.71;44.19;99283.97;5094183;28;20048;-67
2023/03/25 00:31:03;;;;;;;3.45;2.30;;;;;;;19.71;43.89;99281.28;5094249;28;20381;-66
2023/03/25 00:33:32;;;;;;;5.75;2.30;;;;;;;19.69;44.22;99294.13;5096398;28;20044;-67
2023/03/25 00:36:00;;;;;;;3.42;2.33;;;;;;;19.70;44.08;99290.41;5096406;28;20048;-67
2023/03/25 00:38:32;;;;;;;3.55;2.03;;;;;;;19.69;43.98;99299.53;5094710;28;20051;-66
2023/03/25 00:41:11;;;;;;;3.77;2.07;;;;;;;19.69;43.70;99294.13;5094072;28;20036;-66
2023/03/25 00:43:39;;;;;;;3.40;2.00;;;;;;;19.68;43.51;99284.31;5093808;28;20047;-66
2023/03/25 00:46:07;;;;;;;3.70;2.05;;;;;;;19.65;43.71;99290.91;5095207;28;20044;-65
2023/03/25 00:48:36;;;;;;;3.25;1.98;;;;;;;19.67;43.91;99285.31;5093903;28;20055;-67
2023/03/25 00:51:08;;;;;;;3.53;1.92;;;;;;;19.63;43.62;99278.59;5093771;28;20048;-66
2023/03/25 00:53:38;;;;;;;5.13;2.10;;;;;;;19.63;43.45;99294.81;5093777;28;20127;-66
2023/03/25 00:56:07;;;;;;;3.83;2.00;;;;;;;19.65;43.96;99300.88;5093650;28;20123;-66
2023/03/25 00:58:36;;;;;;;3.08;1.90;;;;;;;19.63;43.70;99292.94;5093498;28;20481;-66
2023/03/25 01:01:11;;;;;;;2.95;1.83;;;;;;;19.63;43.51;99292.94;5093605;28;20039;-66
2023/03/25 01:03:42;;;;;;;3.10;1.77;;;;;;;19.61;43.53;99291.44;5093489;28;20133;-66
2023/03/25 01:06:11;;;;;;;2.60;1.70;;;;;;;19.61;43.71;99291.44;5093594;28;20040;-67
2023/03/25 01:08:40;;;;;;;2.83;1.80;;;;;;;19.61;43.97;99303.09;5093332;28;20091;-67
2023/03/25 01:11:18;;;;;;;3.75;1.77;;;;;;;19.61;43.67;99302.25;5093201;28;20044;-67
2023/03/25 01:13:48;;;;;;;2.85;1.63;;;;;;;19.60;43.83;99297.88;5093372;28;20036;-66
2023/03/25 01:16:16;;;;;;;2.88;1.88;;;;;;;19.60;43.63;99289.75;5093950;28;20078;-66
2023/03/25 01:18:44;;;;;;;2.97;1.63;;;;;;;19.59;43.68;99290.75;5093236;28;20046;-67
2023/03/25 01:21:12;;;;;;;3.10;1.80;;;;;;;19.57;43.97;99290.09;5093422;28;20123;-67
2023/03/25 01:23:40;;;;;;;3.20;1.80;;;;;;;19.55;43.79;99289.38;5093712;28;20520;-66
2023/03/25 01:26:08;;;;;;;3.03;1.73;;;;;;;19.57;43.68;99292.78;5093201;28;20468;-67
2023/03/25 01:28:37;;;;;;;2.88;1.70;;;;;;;19.56;43.92;99315.44;5093209;28;20048;-66
2023/03/25 01:31:09;;;;;;;2.70;1.67;;;;;;;19.54;44.19;99312.03;5092964;28;20047;-66
2023/03/25 01:33:38;;;;;;;3.00;1.50;;;;;;;19.53;44.23;99294.13;5092983;28;20036;-66
2023/03/25 01:36:08;;;;;;;3.08;1.45;;;;;;;19.50;44.22;99297.19;5092794;28;20067;-67
2023/03/25 01:38:36;;;;;;;2.85;1.60;;;;;;;19.53;44.09;99302.25;5092875;28;20052;-68
2023/03/25 01:41:06;;;;;;;2.95;1.70;;;;;;;19.53;43.83;99304.94;5094016;28;20094;-67
2023/03/25 01:43:34;;;;;;;3.30;1.80;;;;;;;19.52;44.21;99320.34;5093034;28;20044;-68
2023/03/25 01:46:02;;;;;;;3.45;1.70;;;;;;;19.51;44.34;99320.50;5092872;28;20558;-66
2023/03/25 01:48:36;;;;;;;2.67;1.60;;;;;;;19.51;44.12;99315.09;5092290;28;20578;-66
2023/03/25 01:51:09;;;;;;;2.90;1.60;;;;;;;19.50;44.49;99322.38;5092625;28;20068;-66
2023/03/25 01:53:38;;;;;;;3.08;1.80;;;;;;;19.49;44.48;99317.97;5092816;28;20048;-66
2023/03/25 01:56:12;;;;;;;2.30;1.50;;;;;;;19.49;44.48;99309.84;5092553;28;20460;-67
2023/03/25 01:58:41;;;;;;;3.88;1.75;;;;;;;19.48;44.32;99318.97;5092468;28;20113;-66
2023/03/25 02:01:12;;;;;;;2.53;1.70;;;;;;;19.48;44.43;99328.94;5092512;28;20047;-67
2023/03/25 02:03:44;;;;;;;3.20;1.75;;;;;;;19.45;44.79;99330.16;5092324;28;20051;-66
2023/03/25 02:06:18;;;;;;;2.78;1.60;;;;;;;19.44;44.45;99334.72;5092380;28;20573;-66
2023/03/25 02:08:46;;;;;;;2.67;1.60;;;;;;;19.45;44.93;99336.41;5092910;28;20450;-67
2023/03/25 02:11:14;;;;;;;3.53;1.77;;;;;;;19.44;44.49;99339.28;5092282;28;20122;-67
2023/03/25 02:13:43;;;;;;;3.17;1.73;;;;;;;19.44;44.53;99334.72;5092211;28;20050;-66
2023/03/25 02:16:25;;;;;;;2.70;1.52;;;;;;;19.42;44.63;99336.75;5092572;28;20148;-66
2023/03/25 02:19:06;;;;;;;3.30;1.85;;;;;;;19.42;44.59;99325.09;5092465;28;20043;-66
2023/03/25 02:22:24;;;;;;;3.33;1.77;;;;;;;19.42;44.75;99336.75;5092074;28;20500;-67
2023/03/25 02:25:19;;;;;;;2.35;1.40;;;;;;;19.40;44.66;99327.97;5029580;28;20107;-66
2023/03/25 02:27:57;;;;;;;3.05;1.70;;;;;;;19.40;45.15;99338.78;5029552;28;20147;-67
2023/03/25 02:30:51;;;;;;;2.63;1.60;;;;;;;19.39;45.22;99330.81;5074061;28;20525;-67
2023/03/25 02:33:41;;;;;;;2.25;1.40;;;;;;;19.39;44.92;99328.13;5091993;28;20048;-67
2023/03/25 02:36:40;;;;;;;2.67;1.55;;;;;;;19.38;45.05;99335.38;5048807;28;20048;-67
2023/03/25 02:39:14;;;;;;;2.60;1.55;;;;;;;19.38;45.33;99338.09;5091714;28;20133;-66
2023/03/25 02:41:50;;;;;;;3.58;1.50;;;;;;;19.38;45.42;99329.13;5091901;28;20119;-66
2023/03/25 02:44:25;;;;;;;3.17;1.60;;;;;;;19.36;45.46;99326.59;5091836;28;20063;-67
2023/03/25 02:46:57;;;;;;;2.28;1.45;;;;;;;19.35;45.26;99322.22;5092169;28;20416;-65
2023/03/25 02:49:30;;;;;;;3.03;1.70;;;;;;;19.35;45.40;99324.06;5091773;28;20127;-66
2023/03/25 02:52:01;;;;;;;2.28;1.42;;;;;;;19.30;45.14;99311.09;5091897;28;20086;-66
2023/03/25 02:54:33;;;;;;;2.35;1.40;;;;;;;19.35;45.25;99313.25;5091791;28;20044;-66
2023/03/25 02:57:02;;;;;;;3.20;1.60;;;;;;;19.33;45.24;99310.72;5091725;28;20051;-67
2023/03/25 02:59:32;;;;;;;3.58;1.52;;;;;;;19.32;45.40;99319.03;5092488;28;20127;-68
2023/03/25 03:02:04;;;;;;;2.40;1.27;;;;;;;19.31;45.31;99320.88;5095757;28;20044;-68
2023/03/25 03:04:32;;;;;;;1.83;1.30;;;;;;;19.32;45.73;99314.47;5095690;28;20052;-68
2023/03/25 03:07:01;;;;;;;1.90;1.40;;;;;;;19.30;45.60;99313.78;5095774;28;20055;-67
2023/03/25 03:09:39;;;;;;;2.67;1.50;;;;;;;19.29;45.51;99319.34;5094582;28;20048;-68
2023/03/25 03:12:24;;;;;;;2.92;1.58;;;;;;;19.29;45.61;99330.16;5095750;28;20040;-68
2023/03/25 03:15:05;;;;;;;2.35;1.40;;;;;;;19.27;45.63;99333.03;5095784;28;20054;-67
2023/03/25 03:17:42;;;;;;;2.28;1.40;;;;;;;19.29;45.75;99330.16;5095483;28;20135;-67
2023/03/25 03:20:19;;;;;;;2.65;1.65;;;;;;;19.27;45.94;99326.78;5095647;28;20044;-68
2023/03/25 03:22:53;;;;;;;2.83;1.50;;;;;;;19.26;45.91;99331.34;5095352;28;20051;-68
2023/03/25 03:25:31;;;;;;;2.55;1.50;;;;;;;19.26;45.80;99339.47;5095409;28;20500;-67
2023/03/25 03:28:05;;;;;;;4.07;1.60;;;;;;;19.25;45.74;99339.63;5095356;28;20097;-67
2023/03/25 03:30:45;;;;;;;2.33;1.38;;;;;;;19.21;46.04;99339.13;5095718;28;20055;-68
2023/03/25 03:33:20;;;;;;;1.95;1.45;;;;;;;19.24;46.05;99343.34;5095306;28;20044;-67
2023/03/25 03:35:56;;;;;;;1.95;1.27;;;;;;;19.22;45.85;99348.94;5095242;28;20119;-67
2023/03/25 03:38:27;;;;;;;1.70;1.20;;;;;;;19.23;45.69;99350.63;5095151;28;20070;-66
2023/03/25 03:41:01;;;;;;;3.35;1.42;;;;;;;19.21;45.89;99349.94;5095196;28;20044;-66
2023/03/25 03:43:35;;;;;;;2.20;1.40;;;;;;;19.21;46.03;99344.53;5095051;28;20039;-67
2023/03/25 03:46:07;;;;;;;3.45;1.60;;;;;;;19.21;45.99;99355.34;5095058;28;20547;-65
2023/03/25 03:48:41;;;;;;;2.42;1.50;;;;;;;19.20;46.20;99353.63;5095020;28;20044;-66
2023/03/25 03:51:13;;;;;;;2.42;1.42;;;;;;;19.19;46.02;99365.47;5094957;28;20549;-65
2023/03/25 03:53:45;;;;;;;2.53;1.40;;;;;;;19.15;46.02;99366.84;5094945;28;20107;-66
2023/03/25 03:56:20;;;;;;;1.98;1.30;;;;;;;19.17;45.96;99381.03;5094771;28;20104;-66
2023/03/25 03:58:53;;;;;;;2.08;1.40;;;;;;;19.17;46.29;99381.03;5094792;28;20131;-70
2023/03/25 04:01:30;;;;;;;2.63;1.30;;;;;;;19.16;46.42;99371.22;5094864;28;20051;-68
2023/03/25 04:04:01;;;;;;;2.53;1.48;;;;;;;19.14;46.13;99381.38;5094978;28;20408;-67
2023/03/25 04:06:34;;;;;;;2.63;1.50;;;;;;;19.15;46.22;99383.91;5094670;28;20105;-67
2023/03/25 04:09:10;;;;;;;2.00;1.23;;;;;;;19.13;46.39;99380.53;5094525;28;20048;-67
2023/03/25 04:11:44;;;;;;;2.00;1.27;;;;;;;19.14;46.53;99392.19;5093876;28;20468;-67
2023/03/25 04:14:14;;;;;;;2.38;1.40;;;;;;;19.11;46.55;99393.38;5094446;28;20044;-65
2023/03/25 04:16:44;;;;;;;2.45;1.40;;;;;;;19.10;46.22;99388.09;5094307;28;20075;-67
2023/03/25 04:19:17;;;;;;;1.90;1.30;;;;;;;19.10;46.42;99388.09;5094359;28;20101;-66
2023/03/25 04:21:46;;;;;;;2.33;1.42;;;;;;;19.08;46.50;99388.28;5094518;28;20052;-67
2023/03/25 04:24:18;;;;;;;1.92;1.20;;;;;;;19.10;46.47;99396.22;5094565;28;20070;-65
2023/03/25 04:26:51;;;;;;;2.42;1.30;;;;;;;19.09;46.42;99402.63;5094269;28;20048;-66
2023/03/25 04:29:20;;;;;;;1.88;1.27;;;;;;;19.09;46.71;99399.94;5094190;28;20046;-65
2023/03/25 04:31:49;;;;;;;2.25;1.33;;;;;;;19.07;46.73;99402.81;5094095;28;20160;-65
2023/03/25 04:34:19;;;;;;;1.92;1.40;;;;;;;19.07;46.46;99401.97;5094285;28;20048;-66
2023/03/25 04:36:48;;;;;;;2.85;1.60;;;;;;;19.05;46.47;99410.25;5094189;28;20447;-66
2023/03/25 04:39:21;;;;;;;2.10;1.38;;;;;;;19.03;46.45;99409.56;5093844;28;20416;-65
2023/03/25 04:41:52;;;;;;;1.70;1.25;;;;;;;19.06;46.54;99416.50;5093859;28;20078;-67
2023/03/25 04:44:20;;;;;;;2.05;1.20;;;;;;;19.05;46.89;99415.66;5093725;28;20113;-66
2023/03/25 04:46:49;;;;;;;2.35;1.40;;;;;;;19.05;46.96;99420.22;5093819;28;20493;-65
2023/03/25 04:49:20;;;;;;;2.22;1.40;;;;;;;19.03;46.96;99417.69;5093803;28;20044;-65
2023/03/25 04:51:50;;;;;;;2.75;1.33;;;;;;;19.03;46.86;99419.53;5093907;28;20468;-66
2023/03/25 04:54:19;;;;;;;1.88;1.27;;;;;;;19.02;46.90;99417.84;5093589;28;20048;-67
2023/03/25 04:56:48;;;;;;;1.95;1.45;;;;;;;19.03;46.76;99424.94;5093660;28;20396;-67
2023/03/25 04:59:19;;;;;;;2.80;1.30;;;;;;;19.01;47.05;99419.72;5093514;28;20052;-67
2023/03/25 05:01:47;;;;;;;3.03;1.42;;;;;;;19.01;47.07;99426.94;5093738;28;20047;-65
2023/03/25 05:04:17;;;;;;;1.60;1.17;;;;;;;18.99;46.98;99431.66;5093919;28;20040;-66
2023/03/25 05:06:48;;;;;;;2.20;1.40;;;;;;;19.00;46.92;99436.06;5093358;28;20070;-66
2023/03/25 05:09:19;;;;;;;2.40;1.30;;;;;;;18.99;47.02;99431.66;5093499;28;20093;-66
2023/03/25 05:11:47;;;;;;;1.75;1.30;;;;;;;18.99;47.13;99435.22;5093260;28;20054;-66
2023/03/25 05:14:19;;;;;;;3.42;1.50;;;;;;;18.98;46.94;99447.03;5093340;28;20051;-66
2023/03/25 05:16:47;;;;;;;2.17;1.40;;;;;;;18.96;47.17;99443.66;5093625;28;20424;-66
2023/03/25 05:19:17;;;;;;;2.90;1.45;;;;;;;18.97;46.83;99441.81;5093170;28;20118;-66
2023/03/25 05:21:47;;;;;;;2.40;1.58;;;;;;;18.97;47.09;99441.81;5093245;28;20143;-65
2023/03/25 05:24:15;;;;;;;1.90;1.20;;;;;;;18.97;47.31;99449.91;5092142;28;20048;-66
2023/03/25 05:26:43;;;;;;;2.28;1.40;;;;;;;18.97;47.24;99449.91;5093043;28;20040;-66
2023/03/25 05:29:13;;;;;;;2.03;1.40;;;;;;;18.96;46.99;99449.06;5093009;28;20046;-67
2023/03/25 05:31:45;;;;;;;2.58;1.40;;;;;;;18.95;46.96;99451.94;5093045;28;20068;-67
2023/03/25 05:34:15;;;;;;;2.28;1.23;;;;;;;18.93;47.04;99453.97;5093226;28;20047;-65
2023/03/25 05:36:44;;;;;;;2.58;1.33;;;;;;;18.93;47.29;99448.56;5093043;28;20572;-67
2023/03/25 05:39:13;;;;;;;1.88;1.00;;;;;;;18.92;47.28;99446.88;5092570;28;20062;-67
2023/03/25 05:41:41;;;;;;;2.08;1.40;;;;;;;18.94;47.27;99452.97;5092812;28;20399;-67
2023/03/25 05:44:14;;;;;;;1.70;1.17;;;;;;;18.92;47.18;99447.72;5092656;28;20447;-67
2023/03/25 05:46:43;;;;;;;2.20;1.40;;;;;;;18.91;46.99;99450.56;5092766;28;20074;-67
2023/03/25 05:49:12;;;;;;;2.30;1.30;;;;;;;18.86;47.10;99442.97;5092517;28;20123;-67
2023/03/25 05:51:40;;;;;;;2.78;1.33;;;;;;;18.89;47.17;99448.03;5092550;28;20044;-67
2023/03/25 05:54:09;;;;;;;3.35;1.30;;;;;;;18.87;47.35;99444.66;5092569;28;20089;-67
2023/03/25 05:56:40;;;;;;;1.73;1.20;;;;;;;18.89;47.25;99448.03;5092480;28;20126;-67
2023/03/25 05:59:09;;;;;;;1.73;1.10;;;;;;;18.89;47.09;99453.44;5092479;28;20048;-66
2023/03/25 06:01:37;;;;;;;1.67;1.15;;;;;;;18.86;47.33;99454.63;5092356;28;20040;-67
2023/03/25 06:04:08;;;;;;;2.28;1.20;;;;;;;18.86;47.52;99453.78;5092375;28;20122;-66
2023/03/25 06:06:38;;;;;;;2.83;1.30;;;;;;;18.84;47.55;99451.25;5092331;28;20047;-67
2023/03/25 06:09:07;;;;;;;2.15;1.40;;;;;;;18.81;47.34;99456.94;5092308;28;20378;-67
2023/03/25 06:11:37;;;;;;;1.92;1.00;;;;;;;18.84;47.61;99456.66;5092259;28;20078;-67
2023/03/25 06:14:06;;;;;;;2.28;1.20;;;;;;;18.83;47.62;99457.66;5092238;28;20062;-67
2023/03/25 06:16:35;;;;;;;1.88;1.20;;;;;;;18.82;47.33;99464.06;5092038;28;20131;-68
2023/03/25 06:19:03;;;;;;;1.48;1.00;;;;;;;18.83;47.20;99463.06;5092157;28;20048;-67
2023/03/25 06:21:34;;;;;;;2.45;1.10;;;;;;;18.81;47.26;99467.75;5092196;28;20058;-67
2023/03/25 06:24:02;;;;;;;2.13;1.30;;;;;;;18.78;47.51;99462.69;5092146;28;20447;-67
2023/03/25 06:26:31;;;;;;;1.65;1.10;;;;;;;18.81;47.75;99465.06;5092003;28;20069;-67
2023/03/25 06:28:59;;;;;;;2.58;1.30;;;;;;;18.80;47.78;99462.53;5091941;28;20126;-67
2023/03/25 06:31:32;;;;;;;2.10;1.10;;;;;;;18.81;47.72;99456.94;5092085;28;20048;-67
2023/03/25 06:34:01;;;;;;;2.47;1.27;;;;;;;18.80;47.37;99462.53;5091773;28;20040;-67
2023/03/25 06:36:30;;;;;;;2.70;1.33;;;;;;;18.79;47.42;99472.47;5092016;28;20454;-67
2023/03/25 06:39:00;;;;;;;2.17;1.15;;;;;;;18.80;47.62;99462.53;5091762;28;20534;-67
2023/03/25 06:41:28;;;;;;;2.05;1.30;;;;;;;18.78;47.70;99468.09;5091970;28;20404;-68
2023/03/25 06:43:56;;;;;;;2.08;1.20;;;;;;;18.79;47.64;99475.19;5092008;28;20427;-66
2023/03/25 06:46:25;;;;;;;1.63;1.17;;;;;;;18.77;47.72;99471.81;5091774;28;20075;-67
2023/03/25 06:48:53;;;;;;;1.38;0.95;;;;;;;18.77;47.66;99476.38;5091839;28;20479;-67
2023/03/25 06:51:22;;;;;;;1.33;1.15;;;;;;;18.78;47.58;99484.31;5091854;28;20052;-68
2023/03/25 06:53:50;;;;;;;1.73;1.23;;;;;;;18.79;47.46;99493.25;5091680;28;20123;-68
2023/03/25 06:56:20;;;;;;;3.22;1.15;;;;;;;18.78;47.83;99494.28;5091344;28;20129;-67
2023/03/25 06:58:48;;;;;;;2.08;1.05;;;;;;;18.77;47.62;99490.72;5091502;28;20503;-67
2023/03/25 07:01:16;;;;;;;1.75;1.20;;;;;;;18.78;47.67;99496.97;5091995;28;20096;-67
2023/03/25 07:03:45;;;;;;;1.55;1.05;;;;;;;18.77;47.77;99493.41;5091739;28;20060;-67
2023/03/25 07:06:17;;;;;;;1.90;1.00;;;;;;;18.79;47.89;99490.56;5091709;28;20493;-67
2023/03/25 07:08:45;;;;;;;2.33;1.13;;;;;;;18.79;48.07;99490.56;5091539;28;20044;-67
2023/03/25 07:11:15;;;;;;;1.90;1.10;;;;;;;18.79;47.57;99493.25;5091614;28;20048;-67
2023/03/25 07:13:44;;;;;;;1.30;1.10;;;;;;;18.79;47.96;99499.50;5090973;28;20071;-68
2023/03/25 07:16:13;;;;;;;2.40;1.30;;;;;;;18.79;47.68;99490.56;5091394;28;20036;-68
2023/03/25 07:18:41;;;;;;;1.48;1.08;;;;;;;18.78;47.97;99484.31;5092967;28;20074;-70
2023/03/25 07:21:09;;;;;;;3.72;1.30;;;;;;;18.80;47.66;99487.69;5091630;28;20496;-68
2023/03/25 07:23:38;;;;;;;2.33;1.38;;;;;;;18.79;47.97;99499.50;5091742;28;20124;-68
2023/03/25 07:26:06;;;;;;;2.60;1.40;;;;;;;18.81;47.87;99505.59;5091397;28;20086;-68
2023/03/25 07:28:36;;;;;;;2.22;1.40;;;;;;;18.79;47.99;99504.91;5091425;28;20054;-68
2023/03/25 07:31:08;;;;;;;3.72;1.40;;;;;;;18.81;48.08;99511.00;5091298;28;20055;-68
2023/03/25 07:33:36;;;;;;;3.10;1.50;;;;;;;18.83;48.05;99506.28;5122505;27;20123;-67
2023/03/25 07:36:07;;;;;;;2.85;1.45;;;;;;;18.83;48.26;99509.00;5091340;28;20526;-68
2023/03/25 07:38:36;;;;;;;2.78;1.33;;;;;;;18.84;48.27;99513.38;5090741;28;20052;-67
2023/03/25 07:41:06;;;;;;;3.00;1.58;;;;;;;18.84;48.48;99510.69;5091045;28;20381;-69
2023/03/25 07:43:34;;;;;;;4.20;1.63;;;;;;;18.84;48.15;99504.44;5090870;28;20090;-68
2023/03/25 07:46:02;;;;;;;4.60;1.77;;;;;;;18.86;48.36;99514.06;5091404;28;20040;-68
2023/03/25 07:48:32;;;;;;;4.78;1.60;;;;;;;18.84;48.62;99510.69;5094947;28;20408;-69
2023/03/25 07:51:00;;;;;;;2.83;1.40;;;;;;;18.85;48.27;99506.97;5095100;28;20477;-69
2023/03/25 07:53:28;;;;;;;3.65;1.50;;;;;;;18.87;48.68;99510.34;5093714;28;20127;-69
2023/03/25 07:55:56;;;;;;;3.15;1.50;;;;;;;18.88;48.40;99511.19;5094723;28;20097;-69
2023/03/25 07:58:25;;;;;;;2.65;1.48;;;;;;;18.87;48.51;99510.34;5094842;28;20059;-69
2023/03/25 08:00:56;;;;;;;5.10;1.70;;;;;;;18.90;48.56;99519.13;5094851;28;20044;-69
2023/03/25 08:03:26;;;;;;;3.67;1.70;;;;;;;18.90;48.71;99508.31;5094805;28;20454;-69
2023/03/25 08:05:58;;;;;;;5.15;1.70;;;;;;;18.91;48.86;99515.41;5094663;28;20094;-69
2023/03/25 08:08:28;;;;;;;4.35;1.60;;;;;;;18.90;48.66;99514.56;5094600;28;20048;-68
2023/03/25 08:10:57;;;;;;;4.80;1.85;;;;;;;18.92;48.73;99509.03;5095307;28;20119;-69
2023/03/25 08:13:26;;;;;;;2.63;1.30;;;;;;;18.93;48.54;99508.00;5094627;28;20056;-69
2023/03/25 08:15:54;;;;;;;3.55;1.50;;;;;;;18.93;48.62;99513.41;5094418;28;20040;-72
2023/03/25 08:18:24;;;;;;;3.08;1.40;;;;;;;18.94;48.50;99504.31;5094567;28;20392;-70
2023/03/25 08:20:56;;;;;;;3.75;1.63;;;;;;;18.94;48.68;99507.00;5094467;28;20052;-68
2023/03/25 08:23:25;;;;;;;3.70;1.60;;;;;;;18.94;48.99;99505.16;5094399;28;20051;-68
2023/03/25 08:25:54;;;;;;;4.75;1.60;;;;;;;18.95;48.40;99512.25;5094144;28;20050;-69
2023/03/25 08:28:23;;;;;;;5.63;1.95;;;;;;;18.96;48.64;99502.28;5094169;28;20487;-67
2023/03/25 08:30:53;;;;;;;4.50;1.23;;;;;;;18.97;49.00;99509.38;5094303;28;20044;-69
2023/03/25 08:33:25;;;;;;;3.58;1.35;;;;;;;18.91;49.04;99483.84;5093849;28;20127;-69
2023/03/25 08:35:58;;;;;;;8.43;1.80;;;;;;;18.97;48.95;99495.84;5094071;28;20059;-67
2023/03/25 08:38:30;;;;;;;6.10;1.50;;;;;;;18.93;48.76;99498.06;5093512;28;20292;-69
2023/03/25 08:41:02;;;;;;;6.28;1.48;;;;;;;18.96;49.00;99492.31;5093563;28;20527;-64
2023/03/25 08:43:30;;;;;;;4.57;1.40;;;;;;;18.96;49.04;99497.72;5093584;28;20064;-67
2023/03/25 08:45:58;;;;;;;3.83;1.45;;;;;;;18.97;49.07;99496.69;5092757;28;20040;-67
2023/03/25 08:48:26;;;;;;;7.03;1.50;;;;;;;18.96;49.18;99502.28;5092238;28;20114;-66
2023/03/25 08:50:54;;;;;;;3.97;1.20;;;;;;;18.98;49.28;99497.53;5092922;28;20068;-67
2023/03/25 08:53:24;;;;;;;2.80;1.23;;;;;;;18.96;49.14;99483.34;5092777;28;20148;-69
2023/03/25 08:55:53;;;;;;;2.88;1.10;;;;;;;18.98;48.98;99492.13;5093117;28;21151;-68
2023/03/25 08:58:22;;;;;;;2.60;1.20;;;;;;;18.97;49.03;99485.03;5093091;28;20044;-67
2023/03/25 09:00:53;;;;;;;3.95;1.20;;;;;;;18.99;49.05;99486.56;5093346;28;20048;-68
2023/03/25 09:03:22;;;;;;;4.65;1.65;;;;;;;18.99;48.93;99491.13;5093373;28;20143;-68
2023/03/25 09:05:50;;;;;;;4.05;1.45;;;;;;;18.96;49.32;99478.78;5093355;28;20395;-68
2023/03/25 09:08:20;;;;;;;1.52;1.00;;;;;;;18.98;49.13;99484.03;5093454;28;20078;-68
2023/03/25 09:10:49;;;;;;;2.35;1.20;;;;;;;19.00;49.26;99492.81;5093558;28;20044;-67
2023/03/25 09:13:17;;;;;;;1.85;1.00;;;;;;;19.01;49.17;99483.69;5093372;28;20079;-68
2023/03/25 09:15:46;;;;;;;3.78;1.05;;;;;;;19.02;48.93;99480.00;5093358;28;20068;-68
2023/03/25 09:18:14;;;;;;;3.80;1.30;;;;;;;19.00;49.05;99480.16;5093136;28;20044;-67
2023/03/25 09:20:46;;;;;;;3.78;1.20;;;;;;;19.03;48.75;99487.94;5093110;28;20113;-67
2023/03/25 09:23:14;;;;;;;3.25;1.10;;;;;;;19.01;48.92;99484.56;5090169;28;20461;-67
2023/03/25 09:25:43;;;;;;;2.45;1.27;;;;;;;19.02;49.03;99483.56;5094095;28;20089;-71
2023/03/25 09:28:13;;;;;;;2.90;1.25;;;;;;;19.05;48.62;99485.91;5092935;28;20109;-72
2023/03/25 09:30:41;;;;;;;2.78;0.90;;;;;;;19.05;48.72;99487.78;5092798;28;20043;-65
2023/03/25 09:33:13;;;;;;;4.07;1.20;;;;;;;19.07;48.61;99477.63;5093069;28;20052;-66
2023/03/25 09:35:41;;;;;;;3.38;1.00;;;;;;;19.08;49.39;99473.91;5092884;28;20098;-63
2023/03/25 09:38:09;;;;;;;3.00;1.40;;;;;;;19.11;49.55;99482.56;5092930;28;20052;-65
2023/03/25 09:40:40;;;;;;;5.85;1.80;;;;;;;19.15;49.64;99477.66;5092803;28;20046;-65
2023/03/25 09:43:24;;;;;;;4.63;1.60;;;;;;;19.16;49.89;99471.25;5092848;28;20040;-65
2023/03/25 09:45:54;;;;;;;5.50;1.60;;;;;;;19.17;50.10;99472.94;5092694;28;20044;-65
2023/03/25 09:48:30;;;;;;;3.15;1.30;;;;;;;19.20;50.41;99478.00;5092500;28;20050;-63
2023/03/25 09:51:03;;;;;;;4.85;1.42;;;;;;;19.23;50.24;99483.09;5092991;28;20075;-66
2023/03/25 09:53:35;;;;;;;;;;;;;;;19.26;50.63;99481.91;5093016;28;20097;-67
2023/03/25 09:56:05;;;;;;;8.35;1.92;;;;;;;19.27;50.67;99489.00;5092638;28;19955;-66
2023/03/25 09:58:42;;;;;;;4.03;1.60;;;;;;;19.26;50.41;99488.16;5092770;28;20401;-66
2023/03/25 10:01:24;;;;;;;7.45;1.90;;;;;;;19.31;50.59;99491.22;5092402;28;20083;-61
2023/03/25 10:04:09;;;;;;;8.45;1.90;;;;;;;19.34;50.61;99493.56;5092339;28;20093;-65
2023/03/25 10:06:45;;;;;;;6.72;2.13;;;;;;;19.39;50.52;99477.69;5092290;28;20047;-66
2023/03/25 10:09:31;;;;;;;7.85;2.03;;;;;;;19.40;50.47;99479.41;5091873;28;20411;-65
2023/03/25 10:12:08;;;;;;;7.38;2.00;;;;;;;19.41;50.67;99483.78;5092583;28;20064;-65
2023/03/25 10:14:53;;;;;;;6.32;1.70;;;;;;;19.42;50.42;99488.19;5092298;28;20048;-64
2023/03/25 10:17:30;;;;;;;6.25;2.00;;;;;;;19.44;50.60;99491.56;5092558;28;20447;-64
2023/03/25 10:20:05;;;;;;;7.15;2.25;;;;;;;19.49;50.42;99487.50;5092388;28;20078;-64
2023/03/25 10:22:41;;;;;;;5.35;1.63;;;;;;;19.52;50.81;99484.47;5085727;28;20389;-64
2023/03/25 10:25:15;;;;;;;5.88;1.73;;;;;;;19.55;50.76;99481.44;5090060;28;20035;-64
2023/03/25 10:27:45;;;;;;;6.00;1.92;;;;;;;19.57;50.63;99485.69;5089293;28;20036;-64
2023/03/25 10:30:24;;;;;;;3.20;1.40;;;;;;;19.58;50.65;99478.41;5088893;28;20503;-64
2023/03/25 10:32:55;;;;;;;12.73;1.58;;;;;;;19.59;50.61;99488.22;5091814;28;20043;-63
2023/03/25 10:35:28;;;;;;;9.27;1.75;;;;;;;19.59;50.62;99483.69;5091740;28;20048;-65
2023/03/25 10:38:00;;;;;;;5.53;1.70;;;;;;;19.60;50.49;99485.38;5091829;28;20086;-68
2023/03/25 10:40:36;;;;;;;5.70;1.60;;;;;;;19.61;50.33;99491.63;5091976;28;20119;-72
2023/03/25 10:43:15;;;;;;;3.72;1.60;;;;;;;19.61;49.58;99488.91;5090404;28;20447;-69
2023/03/25 10:45:46;;;;;;;9.45;1.60;;;;;;;19.61;49.76;99487.06;5091314;28;20132;-65
2023/03/25 10:48:21;;;;;;;4.43;1.58;;;;;;;19.62;49.21;99486.03;5091482;28;20449;-64
2023/03/25 10:50:52;;;;;;;5.32;1.65;;;;;;;19.66;49.68;99486.53;5091350;28;20044;-70
2023/03/25 10:53:23;;;;;;;3.92;1.50;;;;;;;19.68;49.67;99495.31;5091356;28;20040;-67
2023/03/25 10:55:56;;;;;;;5.90;2.00;;;;;;;19.69;49.52;99486.22;5091083;28;20131;-66
2023/03/25 10:58:24;;;;;;;5.55;1.42;;;;;;;19.69;49.25;99478.94;5091283;28;20044;-63
2023/03/25 11:00:59;;;;;;;3.88;1.33;;;;;;;19.70;49.41;99477.94;5091211;28;20044;-67
2023/03/25 11:03:33;;;;;;;3.88;1.45;;;;;;;19.71;49.19;99482.31;5091400;28;20047;-69
2023/03/25 11:06:01;;;;;;;3.40;1.10;;;;;;;19.71;48.95;99481.47;5091088;28;20048;-69
2023/03/25 11:08:29;;;;;;;2.35;1.17;;;;;;;19.71;48.96;99476.06;5091068;28;20533;-69
2023/03/25 11:10:59;;;;;;;2.92;1.20;;;;;;;19.71;48.65;99493.13;5091292;28;20068;-70
2023/03/25 11:13:30;;;;;;;2.75;1.15;;;;;;;19.71;48.91;99492.28;5091057;28;20044;-65
2023/03/25 11:16:03;;;;;;;4.47;1.30;;;;;;;19.71;48.74;99489.59;5091309;28;20127;-69
2023/03/25 11:18:37;;;;;;;5.45;1.50;;;;;;;19.69;48.35;99494.31;5090956;28;20075;-69
2023/03/25 11:21:11;;;;;;;3.83;1.23;;;;;;;19.70;48.20;99499.56;5091488;28;20484;-67
2023/03/25 11:23:45;;;;;;;3.23;1.13;;;;;;;19.71;48.36;99498.56;5093874;28;20063;-70
2023/03/25 11:26:23;;;;;;;6.32;1.90;;;;;;;19.70;48.00;99487.91;5094972;28;20044;-71
2023/03/25 11:28:56;;;;;;;3.78;1.50;;;;;;;19.70;47.94;99501.44;5095202;28;20048;-70
2023/03/25 11:31:28;;;;;;;4.68;1.52;;;;;;;19.70;48.29;99496.03;5095717;28;20078;-74
2023/03/25 11:34:16;;;;;;;4.90;1.80;;;;;;;19.69;47.87;99491.63;5095492;28;20072;-77
2023/03/25 11:36:51;;;;;;;5.38;1.73;;;;;;;19.70;47.90;99494.16;5094783;28;20064;-71
2023/03/25 11:39:27;;;;;;;3.92;1.70;;;;;;;19.69;47.62;99488.91;5094567;28;20558;-69
2023/03/25 11:41:55;;;;;;;4.25;1.70;;;;;;;19.68;47.78;99488.03;5095158;28;20040;-72
2023/03/25 11:44:27;;;;;;;5.47;1.50;;;;;;;19.68;47.86;99484.50;5094850;28;20068;-73
2023/03/25 11:47:00;;;;;;;5.50;1.90;;;;;;;19.67;48.03;99490.91;5094808;28;20431;-72
2023/03/25 11:49:34;;;;;;;3.47;1.45;;;;;;;19.67;47.45;99493.63;5094849;28;20040;-72
2023/03/25 11:52:07;;;;;;;4.20;1.50;;;;;;;19.66;47.75;99495.50;5094511;28;20070;-72
2023/03/25 11:54:37;;;;;;;3.65;1.42;;;;;;;19.66;47.23;99494.66;5093217;28;20044;-72